sensor_id;sensor_type;location;lat;lon;timestamp;pressure;altitude;pressure_sealevel;temperature;humidity
58072;BME280;60383;46.626;18.866;2022-08-01T00:00:23;100273.47;;;17.99;58.03
58072;BME280;60383;46.626;18.866;2022-08-01T00:02:48;100271.78;;;18.11;57.79
58072;BME280;60383;46.626;18.866;2022-08-01T00:05:14;100264.72;;;18.02;57.75
58072;BME280;60383;46.626;18.866;2022-08-01T00:07:40;100266.47;;;18.10;57.69
58072;BME280;60383;46.626;18.866;2022-08-01T00:10:09;100258.38;;;18.08;57.91
58072;BME280;60383;46.626;18.866;2022-08-01T00:12:35;100255.78;;;18.07;58.05
58072;BME280;60383;46.626;18.866;2022-08-01T00:15:01;100260.06;;;18.16;57.75
58072;BME280;60383;46.626;18.866;2022-08-01T00:17:26;100259.63;;;17.99;57.94
58072;BME280;60383;46.626;18.866;2022-08-01T00:19:52;100258.03;;;17.76;58.58
58072;BME280;60383;46.626;18.866;2022-08-01T00:22:17;100249.53;;;17.78;58.86
58072;BME280;60383;46.626;18.866;2022-08-01T00:24:43;100253.81;;;17.87;58.42
58072;BME280;60383;46.626;18.866;2022-08-01T00:27:08;100247.63;;;17.78;58.78
58072;BME280;60383;46.626;18.866;2022-08-01T00:29:34;100247.19;;;17.75;58.82
58072;BME280;60383;46.626;18.866;2022-08-01T00:31:59;100247.81;;;17.70;58.68
58072;BME280;60383;46.626;18.866;2022-08-01T00:34:25;100241.22;;;17.71;58.82
58072;BME280;60383;46.626;18.866;2022-08-01T00:36:50;100235.00;;;17.62;58.74
58072;BME280;60383;46.626;18.866;2022-08-01T00:39:15;100239.22;;;17.51;58.92
58072;BME280;60383;46.626;18.866;2022-08-01T00:41:41;100235.16;;;17.40;59.23
58072;BME280;60383;46.626;18.866;2022-08-01T00:44:07;100229.63;;;17.40;58.78
58072;BME280;60383;46.626;18.866;2022-08-01T00:46:33;100230.22;;;17.29;59.02
58072;BME280;60383;46.626;18.866;2022-08-01T00:48:59;100234.94;;;17.35;58.72
58072;BME280;60383;46.626;18.866;2022-08-01T00:51:26;100239.84;;;17.47;58.75
58072;BME280;60383;46.626;18.866;2022-08-01T00:53:52;100244.59;;;17.60;58.33
58072;BME280;60383;46.626;18.866;2022-08-01T00:56:20;100250.53;;;17.50;58.32
58072;BME280;60383;46.626;18.866;2022-08-01T00:58:46;100245.22;;;17.55;58.36
58072;BME280;60383;46.626;18.866;2022-08-01T01:01:12;100246.63;;;17.37;58.81
58072;BME280;60383;46.626;18.866;2022-08-01T01:03:37;100256.25;;;17.42;58.87
58072;BME280;60383;46.626;18.866;2022-08-01T01:06:20;100257.03;;;17.29;59.37
58072;BME280;60383;46.626;18.866;2022-08-01T01:09:12;100253.44;;;17.35;59.54
58072;BME280;60383;46.626;18.866;2022-08-01T01:14:21;100253.00;;;17.31;59.49
58072;BME280;60383;46.626;18.866;2022-08-01T01:16:49;100252.97;;;17.24;59.96
58072;BME280;60383;46.626;18.866;2022-08-01T01:19:21;100250.44;;;17.30;59.74
58072;BME280;60383;46.626;18.866;2022-08-01T01:24:21;100250.22;;;17.24;59.83
58072;BME280;60383;46.626;18.866;2022-08-01T01:29:40;100247.88;;;17.35;59.62
58072;BME280;60383;46.626;18.866;2022-08-01T01:34:53;100240.41;;;17.29;59.82
58072;BME280;60383;46.626;18.866;2022-08-01T01:37:21;100231.47;;;17.27;59.88
58072;BME280;60383;46.626;18.866;2022-08-01T01:39:49;100234.94;;;17.42;59.51
58072;BME280;60383;46.626;18.866;2022-08-01T01:42:17;100231.34;;;17.48;59.27
58072;BME280;60383;46.626;18.866;2022-08-01T01:44:45;100232.16;;;17.42;59.35
58072;BME280;60383;46.626;18.866;2022-08-01T01:47:12;100233.88;;;17.43;59.37
58072;BME280;60383;46.626;18.866;2022-08-01T01:49:39;100233.69;;;17.51;59.01
58072;BME280;60383;46.626;18.866;2022-08-01T01:52:07;100232.19;;;17.49;59.16
58072;BME280;60383;46.626;18.866;2022-08-01T01:54:36;100233.44;;;17.39;59.32
58072;BME280;60383;46.626;18.866;2022-08-01T01:57:03;100239.59;;;17.35;59.50
58072;BME280;60383;46.626;18.866;2022-08-01T01:59:33;100239.13;;;17.24;59.93
58072;BME280;60383;46.626;18.866;2022-08-01T02:02:02;100226.56;;;17.22;60.18
58072;BME280;60383;46.626;18.866;2022-08-01T02:04:29;100225.53;;;17.30;59.97
58072;BME280;60383;46.626;18.866;2022-08-01T02:06:55;100226.38;;;17.30;59.95
58072;BME280;60383;46.626;18.866;2022-08-01T02:09:23;100233.03;;;17.43;59.61
58072;BME280;60383;46.626;18.866;2022-08-01T02:11:50;100229.00;;;17.45;59.25
58072;BME280;60383;46.626;18.866;2022-08-01T02:14:18;100219.81;;;17.45;59.42
58072;BME280;60383;46.626;18.866;2022-08-01T02:16:47;100222.81;;;17.36;59.80
58072;BME280;60383;46.626;18.866;2022-08-01T02:19:14;100227.47;;;17.36;60.08
58072;BME280;60383;46.626;18.866;2022-08-01T02:21:49;100231.50;;;17.33;60.00
58072;BME280;60383;46.626;18.866;2022-08-01T02:24:22;100221.53;;;17.39;59.94
58072;BME280;60383;46.626;18.866;2022-08-01T02:26:52;100233.44;;;17.33;60.34
58072;BME280;60383;46.626;18.866;2022-08-01T02:29:24;100228.13;;;17.38;59.95
58072;BME280;60383;46.626;18.866;2022-08-01T02:31:54;100228.34;;;17.36;60.20
58072;BME280;60383;46.626;18.866;2022-08-01T02:34:20;100220.03;;;17.43;59.93
58072;BME280;60383;46.626;18.866;2022-08-01T02:36:47;100216.84;;;17.39;60.02
58072;BME280;60383;46.626;18.866;2022-08-01T02:39:16;100225.13;;;17.33;60.14
58072;BME280;60383;46.626;18.866;2022-08-01T02:41:44;100215.34;;;17.37;60.13
58072;BME280;60383;46.626;18.866;2022-08-01T02:44:16;100202.78;;;17.34;59.87
58072;BME280;60383;46.626;18.866;2022-08-01T02:46:51;100204.88;;;17.32;60.17
58072;BME280;60383;46.626;18.866;2022-08-01T02:49:17;100205.31;;;17.36;60.03
58072;BME280;60383;46.626;18.866;2022-08-01T02:51:47;100213.34;;;17.17;60.43
58072;BME280;60383;46.626;18.866;2022-08-01T02:54:14;100213.72;;;17.07;60.97
58072;BME280;60383;46.626;18.866;2022-08-01T02:56:41;100218.22;;;17.08;61.06
58072;BME280;60383;46.626;18.866;2022-08-01T02:59:12;100218.88;;;17.17;61.10
58072;BME280;60383;46.626;18.866;2022-08-01T03:01:39;100214.19;;;17.18;60.85
58072;BME280;60383;46.626;18.866;2022-08-01T03:04:05;100211.03;;;17.21;60.23
58072;BME280;60383;46.626;18.866;2022-08-01T03:06:32;100209.16;;;17.35;59.94
58072;BME280;60383;46.626;18.866;2022-08-01T03:09:00;100217.47;;;17.42;59.62
58072;BME280;60383;46.626;18.866;2022-08-01T03:11:27;100215.34;;;17.44;59.49
58072;BME280;60383;46.626;18.866;2022-08-01T03:13:55;100217.50;;;17.48;59.39
58072;BME280;60383;46.626;18.866;2022-08-01T03:16:23;100220.94;;;17.57;59.41
58072;BME280;60383;46.626;18.866;2022-08-01T03:18:52;100220.47;;;17.47;59.86
58072;BME280;60383;46.626;18.866;2022-08-01T03:21:20;100219.41;;;17.48;59.88
58072;BME280;60383;46.626;18.866;2022-08-01T03:23:47;100227.72;;;17.48;59.78
58072;BME280;60383;46.626;18.866;2022-08-01T03:26:14;100223.66;;;17.44;59.92
58072;BME280;60383;46.626;18.866;2022-08-01T03:28:40;100223.88;;;17.42;60.21
58072;BME280;60383;46.626;18.866;2022-08-01T03:31:06;100225.34;;;17.38;60.47
58072;BME280;60383;46.626;18.866;2022-08-01T03:33:32;100232.78;;;17.31;60.83
58072;BME280;60383;46.626;18.866;2022-08-01T03:36:00;100231.47;;;17.27;60.97
58072;BME280;60383;46.626;18.866;2022-08-01T03:38:27;100226.59;;;17.29;61.32
58072;BME280;60383;46.626;18.866;2022-08-01T03:41:02;100229.34;;;17.29;61.21
58072;BME280;60383;46.626;18.866;2022-08-01T03:43:36;100230.84;;;17.24;61.40
58072;BME280;60383;46.626;18.866;2022-08-01T03:46:09;100227.63;;;17.28;61.38
58072;BME280;60383;46.626;18.866;2022-08-01T03:48:39;100219.81;;;17.38;61.35
58072;BME280;60383;46.626;18.866;2022-08-01T03:51:07;100212.78;;;17.42;61.42
58072;BME280;60383;46.626;18.866;2022-08-01T03:53:35;100226.66;;;17.49;61.69
58072;BME280;60383;46.626;18.866;2022-08-01T03:56:02;100220.91;;;17.50;61.89
58072;BME280;60383;46.626;18.866;2022-08-01T03:58:29;100222.44;;;17.60;61.72
58072;BME280;60383;46.626;18.866;2022-08-01T04:00:56;100222.03;;;17.69;61.26
58072;BME280;60383;46.626;18.866;2022-08-01T04:03:22;100224.19;;;17.81;61.49
58072;BME280;60383;46.626;18.866;2022-08-01T04:05:48;100222.69;;;17.78;61.54
58072;BME280;60383;46.626;18.866;2022-08-01T04:08:14;100224.19;;;17.94;61.24
58072;BME280;60383;46.626;18.866;2022-08-01T04:10:39;100226.97;;;17.94;61.40
58072;BME280;60383;46.626;18.866;2022-08-01T04:13:05;100217.22;;;18.05;61.17
58072;BME280;60383;46.626;18.866;2022-08-01T04:15:31;100206.16;;;18.12;60.95
58072;BME280;60383;46.626;18.866;2022-08-01T04:17:56;100213.59;;;18.25;60.82
58072;BME280;60383;46.626;18.866;2022-08-01T04:20:21;100209.13;;;18.30;60.31
58072;BME280;60383;46.626;18.866;2022-08-01T04:22:47;100216.78;;;18.42;59.86
58072;BME280;60383;46.626;18.866;2022-08-01T04:25:17;100212.94;;;18.43;59.73
58072;BME280;60383;46.626;18.866;2022-08-01T04:27:46;100211.44;;;18.54;59.42
58072;BME280;60383;46.626;18.866;2022-08-01T04:30:13;100212.06;;;18.62;59.24
58072;BME280;60383;46.626;18.866;2022-08-01T04:32:41;100216.56;;;18.70;58.95
58072;BME280;60383;46.626;18.866;2022-08-01T04:35:11;100218.66;;;18.75;58.84
58072;BME280;60383;46.626;18.866;2022-08-01T04:37:38;100219.28;;;18.83;58.82
58072;BME280;60383;46.626;18.866;2022-08-01T04:40:06;100219.72;;;18.80;58.79
58072;BME280;60383;46.626;18.866;2022-08-01T04:42:33;100227.19;;;18.93;58.85
58072;BME280;60383;46.626;18.866;2022-08-01T04:44:59;100227.81;;;18.95;58.68
58072;BME280;60383;46.626;18.866;2022-08-01T04:47:26;100226.53;;;18.98;58.66
58072;BME280;60383;46.626;18.866;2022-08-01T04:49:53;100225.88;;;19.09;58.43
58072;BME280;60383;46.626;18.866;2022-08-01T04:52:19;100229.00;;;19.20;58.41
58072;BME280;60383;46.626;18.866;2022-08-01T04:54:45;100229.66;;;19.22;58.30
58072;BME280;60383;46.626;18.866;2022-08-01T04:57:12;100230.91;;;19.26;58.29
58072;BME280;60383;46.626;18.866;2022-08-01T04:59:43;100233.63;;;19.39;58.32
58072;BME280;60383;46.626;18.866;2022-08-01T05:02:16;100227.16;;;19.52;57.86
58072;BME280;60383;46.626;18.866;2022-08-01T05:04:44;100229.38;;;19.37;58.39
58072;BME280;60383;46.626;18.866;2022-08-01T05:07:10;100231.88;;;19.52;58.20
58072;BME280;60383;46.626;18.866;2022-08-01T05:09:36;100230.91;;;19.71;58.05
58072;BME280;60383;46.626;18.866;2022-08-01T05:12:04;100222.75;;;19.76;57.66
58072;BME280;60383;46.626;18.866;2022-08-01T05:14:31;100220.59;;;19.85;57.61
58072;BME280;60383;46.626;18.866;2022-08-01T05:16:58;100219.81;;;20.03;57.40
58072;BME280;60383;46.626;18.866;2022-08-01T05:19:24;100215.06;;;20.10;57.02
58072;BME280;60383;46.626;18.866;2022-08-01T05:21:49;100222.47;;;20.23;57.00
58072;BME280;60383;46.626;18.866;2022-08-01T05:24:15;100225.97;;;20.37;56.58
58072;BME280;60383;46.626;18.866;2022-08-01T05:26:40;100217.97;;;20.48;56.65
58072;BME280;60383;46.626;18.866;2022-08-01T05:29:06;100220.91;;;20.53;56.60
58072;BME280;60383;46.626;18.866;2022-08-01T05:31:31;100217.56;;;20.69;56.30
58072;BME280;60383;46.626;18.866;2022-08-01T05:34:02;100227.25;;;20.85;55.55
58072;BME280;60383;46.626;18.866;2022-08-01T05:36:28;100218.75;;;20.99;55.44
58072;BME280;60383;46.626;18.866;2022-08-01T05:38:54;100225.78;;;21.20;55.01
58072;BME280;60383;46.626;18.866;2022-08-01T05:41:19;100229.03;;;21.35;54.45
58072;BME280;60383;46.626;18.866;2022-08-01T05:43:45;100233.72;;;21.53;54.05
58072;BME280;60383;46.626;18.866;2022-08-01T05:46:10;100230.94;;;21.72;53.52
58072;BME280;60383;46.626;18.866;2022-08-01T05:48:36;100235.69;;;21.83;53.37
58072;BME280;60383;46.626;18.866;2022-08-01T05:51:02;100235.09;;;21.93;53.08
58072;BME280;60383;46.626;18.866;2022-08-01T05:53:27;100233.44;;;22.04;52.39
58072;BME280;60383;46.626;18.866;2022-08-01T05:55:53;100224.53;;;22.26;52.11
58072;BME280;60383;46.626;18.866;2022-08-01T05:58:18;100236.78;;;22.37;51.93
58072;BME280;60383;46.626;18.866;2022-08-01T06:00:44;100240.84;;;22.53;51.22
58072;BME280;60383;46.626;18.866;2022-08-01T06:03:09;100228.72;;;22.71;51.17
58072;BME280;60383;46.626;18.866;2022-08-01T06:05:36;100243.50;;;22.83;51.05
58072;BME280;60383;46.626;18.866;2022-08-01T06:08:02;100242.16;;;22.97;50.60
58072;BME280;60383;46.626;18.866;2022-08-01T06:10:27;100239.09;;;23.11;49.96
58072;BME280;60383;46.626;18.866;2022-08-01T06:12:53;100240.00;;;23.23;49.47
58072;BME280;60383;46.626;18.866;2022-08-01T06:15:18;100233.41;;;23.29;49.37
58072;BME280;60383;46.626;18.866;2022-08-01T06:17:44;100225.25;;;23.40;49.29
58072;BME280;60383;46.626;18.866;2022-08-01T06:20:10;100232.59;;;23.58;48.60
58072;BME280;60383;46.626;18.866;2022-08-01T06:22:35;100227.84;;;23.58;48.27
58072;BME280;60383;46.626;18.866;2022-08-01T06:25:01;100228.31;;;23.67;48.57
58072;BME280;60383;46.626;18.866;2022-08-01T06:27:26;100237.97;;;23.76;47.99
58072;BME280;60383;46.626;18.866;2022-08-01T06:29:52;100236.13;;;23.82;48.16
58072;BME280;60383;46.626;18.866;2022-08-01T06:32:21;100238.66;;;23.96;48.41
58072;BME280;60383;46.626;18.866;2022-08-01T06:34:51;100240.28;;;24.08;48.23
58072;BME280;60383;46.626;18.866;2022-08-01T06:37:17;100233.34;;;24.11;47.74
58072;BME280;60383;46.626;18.866;2022-08-01T06:39:42;100228.53;;;24.23;46.99
58072;BME280;60383;46.626;18.866;2022-08-01T06:42:07;100226.47;;;24.19;46.63
58072;BME280;60383;46.626;18.866;2022-08-01T06:44:34;100223.19;;;24.39;46.50
58072;BME280;60383;46.626;18.866;2022-08-01T06:47:00;100224.22;;;24.50;46.11
58072;BME280;60383;46.626;18.866;2022-08-01T06:49:25;100226.66;;;24.63;45.70
58072;BME280;60383;46.626;18.866;2022-08-01T06:51:51;100223.69;;;24.70;45.66
58072;BME280;60383;46.626;18.866;2022-08-01T06:54:16;100211.47;;;24.59;45.46
58072;BME280;60383;46.626;18.866;2022-08-01T06:56:42;100224.63;;;24.76;45.24
58072;BME280;60383;46.626;18.866;2022-08-01T06:59:08;100221.03;;;24.97;44.65
58072;BME280;60383;46.626;18.866;2022-08-01T07:01:34;100219.28;;;25.13;44.88
58072;BME280;60383;46.626;18.866;2022-08-01T07:03:59;100221.88;;;25.20;44.51
58072;BME280;60383;46.626;18.866;2022-08-01T07:06:25;100223.19;;;25.34;44.33
58072;BME280;60383;46.626;18.866;2022-08-01T07:08:52;100218.78;;;25.39;44.19
58072;BME280;60383;46.626;18.866;2022-08-01T07:11:18;100221.19;;;25.52;44.15
58072;BME280;60383;46.626;18.866;2022-08-01T07:13:44;100223.47;;;25.55;43.63
58072;BME280;60383;46.626;18.866;2022-08-01T07:16:11;100214.31;;;25.65;43.78
58072;BME280;60383;46.626;18.866;2022-08-01T07:18:37;100218.19;;;25.86;43.39
58072;BME280;60383;46.626;18.866;2022-08-01T07:21:02;100221.31;;;25.90;43.04
58072;BME280;60383;46.626;18.866;2022-08-01T07:23:27;100217.97;;;25.93;42.73
58072;BME280;60383;46.626;18.866;2022-08-01T07:25:53;100207.69;;;26.04;42.19
58072;BME280;60383;46.626;18.866;2022-08-01T07:28:18;100208.28;;;25.78;42.64
58072;BME280;60383;46.626;18.866;2022-08-01T07:30:44;100213.91;;;26.06;42.85
58072;BME280;60383;46.626;18.866;2022-08-01T07:33:10;100215.84;;;26.33;42.19
58072;BME280;60383;46.626;18.866;2022-08-01T07:35:35;100213.69;;;26.45;41.63
58072;BME280;60383;46.626;18.866;2022-08-01T07:38:04;100216.94;;;26.64;41.26
58072;BME280;60383;46.626;18.866;2022-08-01T07:40:29;100211.72;;;26.78;40.32
58072;BME280;60383;46.626;18.866;2022-08-01T07:42:55;100215.19;;;26.90;40.62
58072;BME280;60383;46.626;18.866;2022-08-01T07:45:21;100218.63;;;27.03;39.99
58072;BME280;60383;46.626;18.866;2022-08-01T07:47:46;100218.41;;;27.15;39.38
58072;BME280;60383;46.626;18.866;2022-08-01T07:50:12;100220.88;;;27.06;39.37
58072;BME280;60383;46.626;18.866;2022-08-01T07:52:38;100221.75;;;27.12;39.53
58072;BME280;60383;46.626;18.866;2022-08-01T07:55:04;100210.00;;;27.25;39.36
58072;BME280;60383;46.626;18.866;2022-08-01T07:57:30;100208.13;;;27.41;39.38
58072;BME280;60383;46.626;18.866;2022-08-01T07:59:55;100212.69;;;27.57;39.05
58072;BME280;60383;46.626;18.866;2022-08-01T08:02:21;100218.06;;;27.69;38.60
58072;BME280;60383;46.626;18.866;2022-08-01T08:04:46;100206.59;;;27.86;38.00
58072;BME280;60383;46.626;18.866;2022-08-01T08:07:12;100205.19;;;27.89;37.13
58072;BME280;60383;46.626;18.866;2022-08-01T08:09:37;100204.63;;;28.02;36.89
58072;BME280;60383;46.626;18.866;2022-08-01T08:12:03;100201.28;;;28.16;36.80
58072;BME280;60383;46.626;18.866;2022-08-01T08:14:29;100205.72;;;27.91;37.12
58072;BME280;60383;46.626;18.866;2022-08-01T08:16:54;100213.56;;;27.79;37.02
58072;BME280;60383;46.626;18.866;2022-08-01T08:19:19;100210.19;;;27.71;36.77
58072;BME280;60383;46.626;18.866;2022-08-01T08:21:45;100217.56;;;27.88;37.14
58072;BME280;60383;46.626;18.866;2022-08-01T08:24:10;100208.59;;;28.12;37.17
58072;BME280;60383;46.626;18.866;2022-08-01T08:26:49;100213.69;;;28.30;37.18
58072;BME280;60383;46.626;18.866;2022-08-01T08:29:16;100211.13;;;28.44;35.74
58072;BME280;60383;46.626;18.866;2022-08-01T08:31:41;100205.78;;;28.79;34.99
58072;BME280;60383;46.626;18.866;2022-08-01T08:34:07;100213.94;;;28.80;34.53
58072;BME280;60383;46.626;18.866;2022-08-01T08:36:33;100219.84;;;28.84;34.45
58072;BME280;60383;46.626;18.866;2022-08-01T08:38:59;100221.81;;;28.63;35.12
58072;BME280;60383;46.626;18.866;2022-08-01T08:41:31;100218.47;;;28.56;34.46
58072;BME280;60383;46.626;18.866;2022-08-01T08:43:57;100213.06;;;28.59;34.73
58072;BME280;60383;46.626;18.866;2022-08-01T08:46:26;100215.91;;;28.59;34.67
58072;BME280;60383;46.626;18.866;2022-08-01T08:48:52;100210.88;;;28.51;34.97
58072;BME280;60383;46.626;18.866;2022-08-01T08:51:18;100221.56;;;28.49;34.90
58072;BME280;60383;46.626;18.866;2022-08-01T08:53:46;100217.91;;;28.53;35.14
58072;BME280;60383;46.626;18.866;2022-08-01T08:56:12;100206.03;;;28.88;34.87
58072;BME280;60383;46.626;18.866;2022-08-01T08:58:44;100210.47;;;29.14;34.55
58072;BME280;60383;46.626;18.866;2022-08-01T09:01:10;100214.94;;;29.21;34.19
58072;BME280;60383;46.626;18.866;2022-08-01T09:03:36;100207.53;;;29.51;33.72
58072;BME280;60383;46.626;18.866;2022-08-01T09:06:02;100211.94;;;29.72;33.26
58072;BME280;60383;46.626;18.866;2022-08-01T09:08:27;100209.91;;;29.78;32.07
58072;BME280;60383;46.626;18.866;2022-08-01T09:10:53;100211.94;;;29.72;32.01
58072;BME280;60383;46.626;18.866;2022-08-01T09:13:19;100206.94;;;29.54;32.35
58072;BME280;60383;46.626;18.866;2022-08-01T09:15:45;100200.44;;;29.58;32.17
58072;BME280;60383;46.626;18.866;2022-08-01T09:18:35;100209.69;;;29.69;31.72
58072;BME280;60383;46.626;18.866;2022-08-01T09:21:18;100208.81;;;29.74;31.36
58072;BME280;60383;46.626;18.866;2022-08-01T09:23:53;100209.34;;;29.76;31.50
58072;BME280;60383;46.626;18.866;2022-08-01T09:28:55;100206.50;;;29.76;31.58
58072;BME280;60383;46.626;18.866;2022-08-01T09:31:20;100209.84;;;29.93;31.80
58072;BME280;60383;46.626;18.866;2022-08-01T09:33:53;100211.84;;;30.27;30.83
58072;BME280;60383;46.626;18.866;2022-08-01T09:36:24;100214.25;;;30.05;30.77
58072;BME280;60383;46.626;18.866;2022-08-01T09:38:51;100214.38;;;29.84;30.65
58072;BME280;60383;46.626;18.866;2022-08-01T09:41:17;100217.53;;;29.77;31.02
58072;BME280;60383;46.626;18.866;2022-08-01T09:43:49;100215.09;;;29.60;30.80
58072;BME280;60383;46.626;18.866;2022-08-01T09:46:15;100212.06;;;29.41;31.21
58072;BME280;60383;46.626;18.866;2022-08-01T09:49:04;100210.16;;;29.26;31.02
58072;BME280;60383;46.626;18.866;2022-08-01T09:51:36;100211.00;;;29.22;31.14
58072;BME280;60383;46.626;18.866;2022-08-01T09:54:03;100212.44;;;29.19;31.53
58072;BME280;60383;46.626;18.866;2022-08-01T09:56:41;100218.38;;;29.07;31.75
58072;BME280;60383;46.626;18.866;2022-08-01T09:59:11;100217.88;;;28.90;31.50
58072;BME280;60383;46.626;18.866;2022-08-01T10:01:48;100207.72;;;28.89;31.80
58072;BME280;60383;46.626;18.866;2022-08-01T10:04:19;100208.88;;;28.82;32.03
58072;BME280;60383;46.626;18.866;2022-08-01T10:06:47;100207.19;;;28.81;32.27
58072;BME280;60383;46.626;18.866;2022-08-01T10:09:15;100202.91;;;28.94;32.39
58072;BME280;60383;46.626;18.866;2022-08-01T10:11:43;100213.56;;;29.08;32.38
58072;BME280;60383;46.626;18.866;2022-08-01T10:14:09;100199.44;;;29.23;32.48
58072;BME280;60383;46.626;18.866;2022-08-01T10:16:38;100210.41;;;29.35;32.93
58072;BME280;60383;46.626;18.866;2022-08-01T10:19:06;100210.09;;;29.42;32.55
58072;BME280;60383;46.626;18.866;2022-08-01T10:21:33;100206.72;;;29.40;31.55
58072;BME280;60383;46.626;18.866;2022-08-01T10:24:05;100214.97;;;29.31;30.88
58072;BME280;60383;46.626;18.866;2022-08-01T10:26:33;100215.19;;;29.29;31.03
58072;BME280;60383;46.626;18.866;2022-08-01T10:29:00;100210.13;;;29.37;30.89
58072;BME280;60383;46.626;18.866;2022-08-01T10:31:27;100205.03;;;29.28;30.77
58072;BME280;60383;46.626;18.866;2022-08-01T10:33:57;100207.03;;;29.33;30.85
58072;BME280;60383;46.626;18.866;2022-08-01T10:36:23;100203.91;;;29.40;30.41
58072;BME280;60383;46.626;18.866;2022-08-01T10:38:49;100202.41;;;29.53;30.84
58072;BME280;60383;46.626;18.866;2022-08-01T10:41:15;100203.81;;;29.60;30.53
58072;BME280;60383;46.626;18.866;2022-08-01T10:43:41;100201.63;;;29.97;30.50
58072;BME280;60383;46.626;18.866;2022-08-01T10:46:07;100200.69;;;30.41;29.98
58072;BME280;60383;46.626;18.866;2022-08-01T10:48:45;100201.94;;;30.30;29.13
58072;BME280;60383;46.626;18.866;2022-08-01T10:51:12;100190.75;;;30.49;29.44
58072;BME280;60383;46.626;18.866;2022-08-01T10:53:46;100193.31;;;30.46;29.69
58072;BME280;60383;46.626;18.866;2022-08-01T10:56:12;100192.66;;;30.24;30.08
58072;BME280;60383;46.626;18.866;2022-08-01T10:58:38;100190.63;;;30.30;29.80
58072;BME280;60383;46.626;18.866;2022-08-01T11:03:45;100182.78;;;30.22;30.14
58072;BME280;60383;46.626;18.866;2022-08-01T11:06:25;100184.84;;;30.11;29.84
58072;BME280;60383;46.626;18.866;2022-08-01T11:08:53;100179.44;;;30.20;30.14
58072;BME280;60383;46.626;18.866;2022-08-01T11:11:21;100178.56;;;30.19;29.90
58072;BME280;60383;46.626;18.866;2022-08-01T11:16:35;100168.28;;;30.34;30.28
58072;BME280;60383;46.626;18.866;2022-08-01T11:19:03;100169.88;;;30.45;30.12
58072;BME280;60383;46.626;18.866;2022-08-01T11:29:40;100157.16;;;31.01;29.56
58072;BME280;60383;46.626;18.866;2022-08-01T11:32:25;100155.78;;;31.23;29.32
58072;BME280;60383;46.626;18.866;2022-08-01T11:34:53;100150.28;;;31.32;28.58
58072;BME280;60383;46.626;18.866;2022-08-01T11:37:26;100146.13;;;31.24;28.65
58072;BME280;60383;46.626;18.866;2022-08-01T11:40:27;100139.97;;;31.22;28.78
58072;BME280;60383;46.626;18.866;2022-08-01T11:43:17;100148.56;;;31.12;28.24
58072;BME280;60383;46.626;18.866;2022-08-01T11:45:53;100137.38;;;31.26;28.46
58072;BME280;60383;46.626;18.866;2022-08-01T11:48:25;100142.47;;;31.23;28.46
58072;BME280;60383;46.626;18.866;2022-08-01T11:50:54;100138.09;;;31.75;28.39
58072;BME280;60383;46.626;18.866;2022-08-01T11:53:21;100140.72;;;32.23;27.49
58072;BME280;60383;46.626;18.866;2022-08-01T11:55:52;100139.09;;;32.50;26.82
58072;BME280;60383;46.626;18.866;2022-08-01T11:58:26;100130.69;;;32.12;26.82
58072;BME280;60383;46.626;18.866;2022-08-01T12:00:56;100148.19;;;31.81;27.48
58072;BME280;60383;46.626;18.866;2022-08-01T12:03:30;100141.50;;;31.91;27.89
58072;BME280;60383;46.626;18.866;2022-08-01T12:05:58;100136.94;;;31.95;27.51
58072;BME280;60383;46.626;18.866;2022-08-01T12:08:28;100141.97;;;31.79;27.85
58072;BME280;60383;46.626;18.866;2022-08-01T12:10:54;100137.38;;;31.64;27.43
58072;BME280;60383;46.626;18.866;2022-08-01T12:13:21;100140.47;;;31.67;27.51
58072;BME280;60383;46.626;18.866;2022-08-01T12:15:47;100131.44;;;31.65;27.93
58072;BME280;60383;46.626;18.866;2022-08-01T12:18:15;100133.16;;;31.61;27.85
58072;BME280;60383;46.626;18.866;2022-08-01T12:20:43;100132.19;;;31.33;27.97
58072;BME280;60383;46.626;18.866;2022-08-01T12:23:12;100133.16;;;30.99;28.49
58072;BME280;60383;46.626;18.866;2022-08-01T12:25:39;100129.63;;;31.07;28.35
58072;BME280;60383;46.626;18.866;2022-08-01T12:28:07;100122.75;;;31.37;28.03
58072;BME280;60383;46.626;18.866;2022-08-01T12:30:34;100132.66;;;31.78;27.77
58072;BME280;60383;46.626;18.866;2022-08-01T12:33:04;100131.56;;;31.93;27.57
58072;BME280;60383;46.626;18.866;2022-08-01T12:35:30;100127.88;;;31.54;27.74
58072;BME280;60383;46.626;18.866;2022-08-01T12:37:58;100125.81;;;31.22;28.07
58072;BME280;60383;46.626;18.866;2022-08-01T12:40:25;100119.97;;;31.13;28.29
58072;BME280;60383;46.626;18.866;2022-08-01T12:42:53;100132.34;;;31.42;28.26
58072;BME280;60383;46.626;18.866;2022-08-01T12:45:34;100129.78;;;31.59;27.73
58072;BME280;60383;46.626;18.866;2022-08-01T12:48:00;100127.69;;;31.89;27.76
58072;BME280;60383;46.626;18.866;2022-08-01T12:50:30;100131.75;;;32.16;27.26
58072;BME280;60383;46.626;18.866;2022-08-01T12:52:57;100134.13;;;32.28;26.99
58072;BME280;60383;46.626;18.866;2022-08-01T12:55:25;100126.63;;;32.18;26.90
58072;BME280;60383;46.626;18.866;2022-08-01T13:00:29;100122.78;;;32.28;27.24
58072;BME280;60383;46.626;18.866;2022-08-01T13:03:14;100129.03;;;31.92;27.58
58072;BME280;60383;46.626;18.866;2022-08-01T13:08:10;100118.28;;;32.08;27.04
58072;BME280;60383;46.626;18.866;2022-08-01T13:10:36;100123.66;;;32.42;26.73
58072;BME280;60383;46.626;18.866;2022-08-01T13:13:02;100121.97;;;32.08;27.36
58072;BME280;60383;46.626;18.866;2022-08-01T13:15:33;100105.06;;;32.03;27.64